Aérodrome :
LOGIN :

S'inscrire | Disclaimer

   EN    FR    IT 

 










Légende :    VFR   VFR Marginal   IFR   IFR Intensif   IFR Très Intensif
Visi : 
Plafond : 
>= 8 km
>= 3000ft
5 à 8 km
1000 à 3000 ft
1500m à 5 km
500 à 1000 ft
800 à 1500m
200 à 500 ft
< 800m
< 200 ft
Symboles :   Orages  Brouillard  Fortes neiges  Fortes précipitations  Vent > 20 kt
SIGMETs :   Divers  Orages  Givrage  Turbulence  Onde Orograph.  Cendres Volcan.






- Altitude de l'aérodrome : 245 ft


ETHS - Fassberg

DERNIER METAR :
  • 080620Z 09002KT 5000 BR FEW150 M08/M09 Q1040 BLACKWHT BLU+ TEMPO WHT

METARs EXPIRÉS :
  • 080520Z 07003KT 7000 M09/M10 Q1040 BLACKWHT BLU+ TEMPO WHT
  • 080420Z 08003KT 8000 M09/M10 Q1040 BLACKBLU+

TAF TAF ETHS
Valide du 08 à 06h jusqu'au 08 à 15h UTC


080515Z 0806/0815 11005KT 9999 NSW FEW300
TEMPO 0806/0808 12003KT 6000 NSW FEW300



MET'MAP, la Météo Aéronautique d'un coup d'oeil ! - Copyright ORBIFLY Décembre 2007 - Disclaimer

ORBIFLY MET'MAP TEAM :

Programmation & Développement : Alexandra Zaïnal
Sur une idée originale de : Baudouin d'Aumeries
Soutien technique & logistique : Manuel Goepfert
Assistance : Marc-Olivier Méhu




SOURCES & CREDITS :

   NOAA